sensor_id;sensor_type;location;lat;lon;timestamp;P1;durP1;ratioP1;P2;durP2;ratioP2
8397;SDS011;4236;54.504;9.588;2024-02-14T00:01:17;33.97;;;30.77;;
8397;SDS011;4236;54.504;9.588;2024-02-14T00:03:45;33.30;;;29.90;;
8397;SDS011;4236;54.504;9.588;2024-02-14T00:06:14;33.47;;;30.23;;
8397;SDS011;4236;54.504;9.588;2024-02-14T00:08:42;32.20;;;29.07;;
8397;SDS011;4236;54.504;9.588;2024-02-14T00:11:09;32.90;;;29.67;;
8397;SDS011;4236;54.504;9.588;2024-02-14T00:13:38;32.07;;;28.70;;
8397;SDS011;4236;54.504;9.588;2024-02-14T00:16:06;32.73;;;29.70;;
8397;SDS011;4236;54.504;9.588;2024-02-14T00:18:34;30.50;;;27.70;;
8397;SDS011;4236;54.504;9.588;2024-02-14T00:21:02;33.53;;;30.40;;
8397;SDS011;4236;54.504;9.588;2024-02-14T00:23:30;33.20;;;30.23;;
8397;SDS011;4236;54.504;9.588;2024-02-14T00:25:58;30.23;;;27.53;;
8397;SDS011;4236;54.504;9.588;2024-02-14T00:28:26;34.03;;;30.90;;
8397;SDS011;4236;54.504;9.588;2024-02-14T00:30:55;31.73;;;29.10;;
8397;SDS011;4236;54.504;9.588;2024-02-14T00:33:23;31.50;;;28.70;;
8397;SDS011;4236;54.504;9.588;2024-02-14T00:35:51;34.03;;;30.83;;
8397;SDS011;4236;54.504;9.588;2024-02-14T00:38:19;35.50;;;32.40;;
8397;SDS011;4236;54.504;9.588;2024-02-14T00:40:47;32.63;;;29.83;;
8397;SDS011;4236;54.504;9.588;2024-02-14T00:43:15;32.90;;;29.87;;
8397;SDS011;4236;54.504;9.588;2024-02-14T00:45:42;33.60;;;30.50;;
8397;SDS011;4236;54.504;9.588;2024-02-14T00:48:11;32.73;;;30.10;;
8397;SDS011;4236;54.504;9.588;2024-02-14T00:50:39;35.47;;;32.37;;
8397;SDS011;4236;54.504;9.588;2024-02-14T00:53:07;36.13;;;32.83;;
8397;SDS011;4236;54.504;9.588;2024-02-14T00:55:35;35.90;;;32.30;;
8397;SDS011;4236;54.504;9.588;2024-02-14T00:58:02;34.50;;;31.40;;
8397;SDS011;4236;54.504;9.588;2024-02-14T01:00:31;34.33;;;31.27;;
8397;SDS011;4236;54.504;9.588;2024-02-14T01:03:01;35.73;;;32.57;;
8397;SDS011;4236;54.504;9.588;2024-02-14T01:05:31;35.67;;;32.30;;
8397;SDS011;4236;54.504;9.588;2024-02-14T01:07:59;32.83;;;30.03;;
8397;SDS011;4236;54.504;9.588;2024-02-14T01:10:26;37.83;;;30.47;;
8397;SDS011;4236;54.504;9.588;2024-02-14T01:12:54;32.13;;;29.23;;
8397;SDS011;4236;54.504;9.588;2024-02-14T01:15:23;33.67;;;30.60;;
8397;SDS011;4236;54.504;9.588;2024-02-14T01:17:50;33.47;;;30.67;;
8397;SDS011;4236;54.504;9.588;2024-02-14T01:20:18;32.83;;;29.63;;
8397;SDS011;4236;54.504;9.588;2024-02-14T01:22:47;32.50;;;29.30;;
8397;SDS011;4236;54.504;9.588;2024-02-14T01:25:15;31.33;;;28.70;;
8397;SDS011;4236;54.504;9.588;2024-02-14T01:27:43;31.97;;;29.57;;
8397;SDS011;4236;54.504;9.588;2024-02-14T01:30:11;32.53;;;29.23;;
8397;SDS011;4236;54.504;9.588;2024-02-14T01:32:39;33.57;;;30.77;;
8397;SDS011;4236;54.504;9.588;2024-02-14T01:35:06;33.67;;;30.30;;
8397;SDS011;4236;54.504;9.588;2024-02-14T01:37:35;32.77;;;29.70;;
8397;SDS011;4236;54.504;9.588;2024-02-14T01:40:06;31.17;;;28.20;;
8397;SDS011;4236;54.504;9.588;2024-02-14T01:42:35;31.43;;;28.67;;
8397;SDS011;4236;54.504;9.588;2024-02-14T01:45:02;31.77;;;28.87;;
8397;SDS011;4236;54.504;9.588;2024-02-14T01:47:31;31.23;;;28.77;;
8397;SDS011;4236;54.504;9.588;2024-02-14T01:49:59;32.73;;;29.93;;
8397;SDS011;4236;54.504;9.588;2024-02-14T01:52:27;32.50;;;29.80;;
8397;SDS011;4236;54.504;9.588;2024-02-14T01:54:55;32.07;;;29.27;;
8397;SDS011;4236;54.504;9.588;2024-02-14T01:57:24;33.57;;;30.30;;
8397;SDS011;4236;54.504;9.588;2024-02-14T01:59:52;32.37;;;29.30;;
8397;SDS011;4236;54.504;9.588;2024-02-14T02:02:21;33.23;;;30.13;;
8397;SDS011;4236;54.504;9.588;2024-02-14T02:04:49;30.60;;;27.60;;
8397;SDS011;4236;54.504;9.588;2024-02-14T02:07:18;32.70;;;29.67;;
8397;SDS011;4236;54.504;9.588;2024-02-14T02:09:46;31.73;;;28.90;;
8397;SDS011;4236;54.504;9.588;2024-02-14T02:12:14;30.37;;;27.77;;
8397;SDS011;4236;54.504;9.588;2024-02-14T02:14:43;31.10;;;28.10;;
8397;SDS011;4236;54.504;9.588;2024-02-14T02:17:11;32.07;;;29.13;;
8397;SDS011;4236;54.504;9.588;2024-02-14T02:19:39;29.43;;;27.03;;
8397;SDS011;4236;54.504;9.588;2024-02-14T02:22:06;30.90;;;28.20;;
8397;SDS011;4236;54.504;9.588;2024-02-14T02:24:35;30.73;;;27.97;;
8397;SDS011;4236;54.504;9.588;2024-02-14T02:27:03;29.50;;;27.20;;
8397;SDS011;4236;54.504;9.588;2024-02-14T02:29:31;31.00;;;28.50;;
8397;SDS011;4236;54.504;9.588;2024-02-14T02:31:59;32.87;;;30.00;;
8397;SDS011;4236;54.504;9.588;2024-02-14T02:34:27;31.07;;;28.50;;
8397;SDS011;4236;54.504;9.588;2024-02-14T02:36:55;31.10;;;28.50;;
8397;SDS011;4236;54.504;9.588;2024-02-14T02:39:23;31.53;;;28.80;;
8397;SDS011;4236;54.504;9.588;2024-02-14T02:41:52;33.30;;;29.90;;
8397;SDS011;4236;54.504;9.588;2024-02-14T02:44:23;30.73;;;27.60;;
8397;SDS011;4236;54.504;9.588;2024-02-14T02:46:51;30.83;;;28.00;;
8397;SDS011;4236;54.504;9.588;2024-02-14T02:49:18;32.33;;;29.60;;
8397;SDS011;4236;54.504;9.588;2024-02-14T02:51:47;31.67;;;29.17;;
8397;SDS011;4236;54.504;9.588;2024-02-14T02:54:15;30.80;;;28.20;;
8397;SDS011;4236;54.504;9.588;2024-02-14T02:56:43;31.77;;;29.20;;
8397;SDS011;4236;54.504;9.588;2024-02-14T02:59:12;30.73;;;28.37;;
8397;SDS011;4236;54.504;9.588;2024-02-14T03:01:43;32.00;;;28.80;;
8397;SDS011;4236;54.504;9.588;2024-02-14T03:04:10;31.67;;;28.77;;
8397;SDS011;4236;54.504;9.588;2024-02-14T03:06:41;31.77;;;29.10;;
8397;SDS011;4236;54.504;9.588;2024-02-14T03:09:09;30.97;;;28.40;;
8397;SDS011;4236;54.504;9.588;2024-02-14T03:11:38;32.83;;;29.70;;
8397;SDS011;4236;54.504;9.588;2024-02-14T03:14:07;32.77;;;29.60;;
8397;SDS011;4236;54.504;9.588;2024-02-14T03:16:36;32.93;;;28.17;;
8397;SDS011;4236;54.504;9.588;2024-02-14T03:19:05;30.30;;;28.00;;
8397;SDS011;4236;54.504;9.588;2024-02-14T03:21:32;33.10;;;29.90;;
8397;SDS011;4236;54.504;9.588;2024-02-14T03:24:01;31.07;;;28.67;;
8397;SDS011;4236;54.504;9.588;2024-02-14T03:26:31;32.87;;;29.87;;
8397;SDS011;4236;54.504;9.588;2024-02-14T03:28:59;30.47;;;28.27;;
8397;SDS011;4236;54.504;9.588;2024-02-14T03:31:27;33.10;;;30.50;;
8397;SDS011;4236;54.504;9.588;2024-02-14T03:33:56;35.27;;;32.07;;
8397;SDS011;4236;54.504;9.588;2024-02-14T03:36:24;33.50;;;30.70;;
8397;SDS011;4236;54.504;9.588;2024-02-14T03:38:56;33.57;;;30.77;;
8397;SDS011;4236;54.504;9.588;2024-02-14T03:41:24;34.73;;;32.00;;
8397;SDS011;4236;54.504;9.588;2024-02-14T03:43:52;34.20;;;31.23;;
8397;SDS011;4236;54.504;9.588;2024-02-14T03:46:24;33.97;;;31.03;;
8397;SDS011;4236;54.504;9.588;2024-02-14T03:48:52;35.10;;;32.03;;
8397;SDS011;4236;54.504;9.588;2024-02-14T03:51:22;33.77;;;30.77;;
8397;SDS011;4236;54.504;9.588;2024-02-14T03:53:50;34.50;;;31.60;;
8397;SDS011;4236;54.504;9.588;2024-02-14T03:56:18;32.87;;;30.27;;
8397;SDS011;4236;54.504;9.588;2024-02-14T03:58:46;34.17;;;31.23;;
8397;SDS011;4236;54.504;9.588;2024-02-14T04:01:14;34.37;;;31.40;;
8397;SDS011;4236;54.504;9.588;2024-02-14T04:03:42;34.90;;;31.67;;
8397;SDS011;4236;54.504;9.588;2024-02-14T04:06:10;35.47;;;32.33;;
8397;SDS011;4236;54.504;9.588;2024-02-14T04:08:39;35.13;;;31.97;;
8397;SDS011;4236;54.504;9.588;2024-02-14T04:11:07;34.17;;;31.53;;
8397;SDS011;4236;54.504;9.588;2024-02-14T04:13:35;35.27;;;32.40;;
8397;SDS011;4236;54.504;9.588;2024-02-14T04:16:03;34.37;;;31.47;;
8397;SDS011;4236;54.504;9.588;2024-02-14T04:18:31;33.10;;;30.23;;
8397;SDS011;4236;54.504;9.588;2024-02-14T04:20:59;39.00;;;35.50;;
8397;SDS011;4236;54.504;9.588;2024-02-14T04:23:27;37.20;;;33.97;;
8397;SDS011;4236;54.504;9.588;2024-02-14T04:25:56;36.67;;;33.50;;
8397;SDS011;4236;54.504;9.588;2024-02-14T04:28:24;36.97;;;33.90;;
8397;SDS011;4236;54.504;9.588;2024-02-14T04:30:52;35.47;;;32.57;;
8397;SDS011;4236;54.504;9.588;2024-02-14T04:33:21;38.73;;;35.13;;
8397;SDS011;4236;54.504;9.588;2024-02-14T04:35:49;39.03;;;35.33;;
8397;SDS011;4236;54.504;9.588;2024-02-14T04:38:17;35.57;;;32.73;;
8397;SDS011;4236;54.504;9.588;2024-02-14T04:40:46;35.53;;;32.40;;
8397;SDS011;4236;54.504;9.588;2024-02-14T04:43:15;34.70;;;31.90;;
8397;SDS011;4236;54.504;9.588;2024-02-14T04:45:43;36.73;;;33.60;;
8397;SDS011;4236;54.504;9.588;2024-02-14T04:48:11;35.50;;;32.27;;
8397;SDS011;4236;54.504;9.588;2024-02-14T04:50:39;33.70;;;30.97;;
8397;SDS011;4236;54.504;9.588;2024-02-14T04:53:07;34.07;;;31.20;;
8397;SDS011;4236;54.504;9.588;2024-02-14T04:55:35;35.30;;;32.10;;
8397;SDS011;4236;54.504;9.588;2024-02-14T04:58:02;37.20;;;33.90;;
8397;SDS011;4236;54.504;9.588;2024-02-14T05:00:33;37.90;;;34.80;;
8397;SDS011;4236;54.504;9.588;2024-02-14T05:03:00;35.10;;;32.17;;
8397;SDS011;4236;54.504;9.588;2024-02-14T05:05:30;36.80;;;33.70;;
8397;SDS011;4236;54.504;9.588;2024-02-14T05:08:00;37.70;;;33.87;;
8397;SDS011;4236;54.504;9.588;2024-02-14T05:10:28;41.90;;;37.50;;
8397;SDS011;4236;54.504;9.588;2024-02-14T05:12:56;45.30;;;40.30;;
8397;SDS011;4236;54.504;9.588;2024-02-14T05:15:24;42.93;;;38.23;;
8397;SDS011;4236;54.504;9.588;2024-02-14T05:17:53;45.60;;;41.33;;
8397;SDS011;4236;54.504;9.588;2024-02-14T05:20:22;42.03;;;37.83;;
8397;SDS011;4236;54.504;9.588;2024-02-14T05:22:50;45.10;;;40.20;;
8397;SDS011;4236;54.504;9.588;2024-02-14T05:25:18;41.13;;;37.27;;
8397;SDS011;4236;54.504;9.588;2024-02-14T05:27:46;38.60;;;35.07;;
8397;SDS011;4236;54.504;9.588;2024-02-14T05:30:15;37.30;;;34.07;;
8397;SDS011;4236;54.504;9.588;2024-02-14T05:32:43;34.20;;;31.23;;
8397;SDS011;4236;54.504;9.588;2024-02-14T05:35:12;34.30;;;31.13;;
8397;SDS011;4236;54.504;9.588;2024-02-14T05:37:40;32.60;;;29.80;;
8397;SDS011;4236;54.504;9.588;2024-02-14T05:40:08;33.13;;;30.47;;
8397;SDS011;4236;54.504;9.588;2024-02-14T05:42:36;31.73;;;29.23;;
8397;SDS011;4236;54.504;9.588;2024-02-14T05:45:04;34.40;;;31.60;;
8397;SDS011;4236;54.504;9.588;2024-02-14T05:47:32;33.03;;;30.60;;
8397;SDS011;4236;54.504;9.588;2024-02-14T05:50:00;31.47;;;29.03;;
8397;SDS011;4236;54.504;9.588;2024-02-14T05:52:30;32.30;;;29.80;;
8397;SDS011;4236;54.504;9.588;2024-02-14T05:54:57;31.27;;;28.97;;
8397;SDS011;4236;54.504;9.588;2024-02-14T05:57:25;31.73;;;28.93;;
8397;SDS011;4236;54.504;9.588;2024-02-14T05:59:53;32.77;;;30.07;;
8397;SDS011;4236;54.504;9.588;2024-02-14T06:02:23;33.70;;;30.50;;
8397;SDS011;4236;54.504;9.588;2024-02-14T06:04:50;31.60;;;29.13;;
8397;SDS011;4236;54.504;9.588;2024-02-14T06:07:18;31.33;;;29.23;;
8397;SDS011;4236;54.504;9.588;2024-02-14T06:09:47;32.00;;;29.47;;
8397;SDS011;4236;54.504;9.588;2024-02-14T06:12:15;31.87;;;29.57;;
8397;SDS011;4236;54.504;9.588;2024-02-14T06:14:43;31.33;;;28.73;;
8397;SDS011;4236;54.504;9.588;2024-02-14T06:17:12;29.70;;;27.33;;
8397;SDS011;4236;54.504;9.588;2024-02-14T06:19:39;31.63;;;29.20;;
8397;SDS011;4236;54.504;9.588;2024-02-14T06:22:07;32.03;;;29.57;;
8397;SDS011;4236;54.504;9.588;2024-02-14T06:24:36;33.50;;;30.83;;
8397;SDS011;4236;54.504;9.588;2024-02-14T06:27:06;32.23;;;29.53;;
8397;SDS011;4236;54.504;9.588;2024-02-14T06:29:34;33.47;;;30.40;;
8397;SDS011;4236;54.504;9.588;2024-02-14T06:32:02;33.60;;;30.90;;
8397;SDS011;4236;54.504;9.588;2024-02-14T06:34:30;33.10;;;30.37;;
8397;SDS011;4236;54.504;9.588;2024-02-14T06:36:58;33.83;;;31.10;;
8397;SDS011;4236;54.504;9.588;2024-02-14T06:39:26;34.00;;;31.10;;
8397;SDS011;4236;54.504;9.588;2024-02-14T06:41:54;35.97;;;32.77;;
8397;SDS011;4236;54.504;9.588;2024-02-14T06:44:23;36.20;;;33.27;;
8397;SDS011;4236;54.504;9.588;2024-02-14T06:46:51;34.80;;;31.60;;
8397;SDS011;4236;54.504;9.588;2024-02-14T06:49:19;34.97;;;31.97;;
8397;SDS011;4236;54.504;9.588;2024-02-14T06:51:47;35.83;;;32.73;;
8397;SDS011;4236;54.504;9.588;2024-02-14T06:54:14;37.07;;;33.47;;
8397;SDS011;4236;54.504;9.588;2024-02-14T06:56:43;35.67;;;32.80;;
8397;SDS011;4236;54.504;9.588;2024-02-14T06:59:11;35.93;;;32.73;;
8397;SDS011;4236;54.504;9.588;2024-02-14T07:01:40;35.80;;;32.80;;
8397;SDS011;4236;54.504;9.588;2024-02-14T07:04:08;36.57;;;33.53;;
8397;SDS011;4236;54.504;9.588;2024-02-14T07:06:35;36.93;;;33.67;;
8397;SDS011;4236;54.504;9.588;2024-02-14T07:09:03;37.20;;;33.73;;
8397;SDS011;4236;54.504;9.588;2024-02-14T07:11:31;35.10;;;31.97;;
8397;SDS011;4236;54.504;9.588;2024-02-14T07:13:59;35.00;;;31.90;;
8397;SDS011;4236;54.504;9.588;2024-02-14T07:16:26;35.30;;;32.40;;
8397;SDS011;4236;54.504;9.588;2024-02-14T07:18:56;33.43;;;30.63;;
8397;SDS011;4236;54.504;9.588;2024-02-14T07:21:24;34.17;;;31.27;;
8397;SDS011;4236;54.504;9.588;2024-02-14T07:23:51;34.70;;;32.00;;
8397;SDS011;4236;54.504;9.588;2024-02-14T07:26:20;34.17;;;31.57;;
8397;SDS011;4236;54.504;9.588;2024-02-14T07:28:47;35.40;;;32.40;;
8397;SDS011;4236;54.504;9.588;2024-02-14T07:31:15;34.30;;;31.33;;
8397;SDS011;4236;54.504;9.588;2024-02-14T07:33:42;31.83;;;29.33;;
8397;SDS011;4236;54.504;9.588;2024-02-14T07:36:12;33.33;;;30.70;;
8397;SDS011;4236;54.504;9.588;2024-02-14T07:38:41;35.47;;;32.67;;
8397;SDS011;4236;54.504;9.588;2024-02-14T07:41:09;35.77;;;32.63;;
8397;SDS011;4236;54.504;9.588;2024-02-14T07:43:37;34.77;;;31.83;;
8397;SDS011;4236;54.504;9.588;2024-02-14T07:46:05;34.83;;;31.90;;
8397;SDS011;4236;54.504;9.588;2024-02-14T07:48:33;35.57;;;32.43;;
8397;SDS011;4236;54.504;9.588;2024-02-14T07:51:01;30.97;;;28.77;;
8397;SDS011;4236;54.504;9.588;2024-02-14T07:53:30;33.60;;;30.33;;
8397;SDS011;4236;54.504;9.588;2024-02-14T07:55:58;31.43;;;28.83;;
8397;SDS011;4236;54.504;9.588;2024-02-14T07:58:26;32.87;;;30.37;;
8397;SDS011;4236;54.504;9.588;2024-02-14T08:00:54;33.13;;;30.73;;
8397;SDS011;4236;54.504;9.588;2024-02-14T08:03:22;32.27;;;29.27;;
8397;SDS011;4236;54.504;9.588;2024-02-14T08:05:50;30.80;;;28.20;;
8397;SDS011;4236;54.504;9.588;2024-02-14T08:08:18;32.77;;;30.20;;
8397;SDS011;4236;54.504;9.588;2024-02-14T08:10:48;34.90;;;31.87;;
8397;SDS011;4236;54.504;9.588;2024-02-14T08:13:16;31.90;;;29.50;;
8397;SDS011;4236;54.504;9.588;2024-02-14T08:15:44;32.27;;;29.60;;
8397;SDS011;4236;54.504;9.588;2024-02-14T08:18:12;35.17;;;32.20;;
8397;SDS011;4236;54.504;9.588;2024-02-14T08:20:39;31.43;;;28.80;;
8397;SDS011;4236;54.504;9.588;2024-02-14T08:23:07;33.53;;;30.33;;
8397;SDS011;4236;54.504;9.588;2024-02-14T08:25:35;34.13;;;31.10;;
8397;SDS011;4236;54.504;9.588;2024-02-14T08:28:05;32.07;;;29.57;;
8397;SDS011;4236;54.504;9.588;2024-02-14T08:30:34;34.13;;;31.33;;
8397;SDS011;4236;54.504;9.588;2024-02-14T08:33:01;32.33;;;29.70;;
8397;SDS011;4236;54.504;9.588;2024-02-14T08:35:29;32.23;;;29.80;;
8397;SDS011;4236;54.504;9.588;2024-02-14T08:37:59;30.00;;;27.73;;
8397;SDS011;4236;54.504;9.588;2024-02-14T08:40:26;32.00;;;29.37;;
8397;SDS011;4236;54.504;9.588;2024-02-14T08:42:54;32.50;;;29.87;;
8397;SDS011;4236;54.504;9.588;2024-02-14T08:45:23;31.97;;;29.60;;
8397;SDS011;4236;54.504;9.588;2024-02-14T08:47:51;32.57;;;30.07;;
8397;SDS011;4236;54.504;9.588;2024-02-14T08:50:19;32.47;;;29.97;;
8397;SDS011;4236;54.504;9.588;2024-02-14T08:52:47;30.63;;;28.23;;
8397;SDS011;4236;54.504;9.588;2024-02-14T08:55:15;31.30;;;28.80;;
8397;SDS011;4236;54.504;9.588;2024-02-14T08:57:44;29.93;;;27.70;;
8397;SDS011;4236;54.504;9.588;2024-02-14T09:00:14;31.23;;;28.83;;
8397;SDS011;4236;54.504;9.588;2024-02-14T09:02:47;30.27;;;28.07;;
8397;SDS011;4236;54.504;9.588;2024-02-14T09:05:15;32.10;;;29.47;;
8397;SDS011;4236;54.504;9.588;2024-02-14T09:07:45;30.13;;;28.00;;
8397;SDS011;4236;54.504;9.588;2024-02-14T09:10:12;29.13;;;27.00;;
8397;SDS011;4236;54.504;9.588;2024-02-14T09:12:40;30.80;;;28.40;;
8397;SDS011;4236;54.504;9.588;2024-02-14T09:15:08;30.27;;;27.97;;
8397;SDS011;4236;54.504;9.588;2024-02-14T09:17:38;29.50;;;27.40;;
8397;SDS011;4236;54.504;9.588;2024-02-14T09:20:09;30.90;;;28.40;;
8397;SDS011;4236;54.504;9.588;2024-02-14T09:22:40;29.67;;;27.57;;
8397;SDS011;4236;54.504;9.588;2024-02-14T09:25:08;30.40;;;28.00;;
8397;SDS011;4236;54.504;9.588;2024-02-14T09:27:37;28.60;;;26.70;;
8397;SDS011;4236;54.504;9.588;2024-02-14T09:30:05;28.40;;;26.40;;
8397;SDS011;4236;54.504;9.588;2024-02-14T09:32:37;26.90;;;25.10;;
8397;SDS011;4236;54.504;9.588;2024-02-14T09:35:05;27.93;;;26.10;;
8397;SDS011;4236;54.504;9.588;2024-02-14T09:37:35;29.13;;;27.10;;
8397;SDS011;4236;54.504;9.588;2024-02-14T09:40:04;29.10;;;27.07;;
8397;SDS011;4236;54.504;9.588;2024-02-14T09:42:35;29.23;;;27.33;;
8397;SDS011;4236;54.504;9.588;2024-02-14T09:45:07;27.63;;;25.73;;
8397;SDS011;4236;54.504;9.588;2024-02-14T09:47:40;30.40;;;28.20;;
8397;SDS011;4236;54.504;9.588;2024-02-14T09:50:09;30.70;;;28.50;;
8397;SDS011;4236;54.504;9.588;2024-02-14T09:52:40;30.47;;;28.47;;
8397;SDS011;4236;54.504;9.588;2024-02-14T09:55:09;30.13;;;28.07;;
8397;SDS011;4236;54.504;9.588;2024-02-14T09:57:38;30.90;;;28.73;;
8397;SDS011;4236;54.504;9.588;2024-02-14T10:00:09;28.50;;;26.47;;
8397;SDS011;4236;54.504;9.588;2024-02-14T10:02:38;30.60;;;28.30;;
8397;SDS011;4236;54.504;9.588;2024-02-14T10:05:06;30.30;;;28.20;;
8397;SDS011;4236;54.504;9.588;2024-02-14T10:07:41;29.73;;;27.63;;
8397;SDS011;4236;54.504;9.588;2024-02-14T10:10:09;28.90;;;26.93;;
8397;SDS011;4236;54.504;9.588;2024-02-14T10:12:38;28.97;;;27.07;;
8397;SDS011;4236;54.504;9.588;2024-02-14T10:15:07;29.57;;;27.57;;
8397;SDS011;4236;54.504;9.588;2024-02-14T10:17:35;30.63;;;28.53;;
8397;SDS011;4236;54.504;9.588;2024-02-14T10:20:07;30.30;;;28.10;;
8397;SDS011;4236;54.504;9.588;2024-02-14T10:22:36;29.30;;;27.30;;
8397;SDS011;4236;54.504;9.588;2024-02-14T10:25:07;30.97;;;28.63;;
8397;SDS011;4236;54.504;9.588;2024-02-14T10:27:36;28.80;;;26.90;;
8397;SDS011;4236;54.504;9.588;2024-02-14T10:30:05;28.40;;;26.47;;
8397;SDS011;4236;54.504;9.588;2024-02-14T10:32:36;30.20;;;27.93;;
8397;SDS011;4236;54.504;9.588;2024-02-14T10:35:04;31.30;;;28.57;;
8397;SDS011;4236;54.504;9.588;2024-02-14T10:37:35;31.53;;;29.23;;
8397;SDS011;4236;54.504;9.588;2024-02-14T10:40:04;29.93;;;27.53;;
8397;SDS011;4236;54.504;9.588;2024-02-14T10:42:34;28.50;;;26.67;;
8397;SDS011;4236;54.504;9.588;2024-02-14T10:45:02;29.20;;;27.20;;
8397;SDS011;4236;54.504;9.588;2024-02-14T10:47:33;30.13;;;28.03;;
8397;SDS011;4236;54.504;9.588;2024-02-14T10:50:03;31.17;;;29.03;;
8397;SDS011;4236;54.504;9.588;2024-02-14T10:52:34;29.37;;;27.37;;
8397;SDS011;4236;54.504;9.588;2024-02-14T10:55:03;30.73;;;28.73;;
8397;SDS011;4236;54.504;9.588;2024-02-14T10:57:33;30.23;;;28.17;;
8397;SDS011;4236;54.504;9.588;2024-02-14T11:00:03;30.60;;;28.50;;
8397;SDS011;4236;54.504;9.588;2024-02-14T11:02:34;31.37;;;28.90;;
8397;SDS011;4236;54.504;9.588;2024-02-14T11:05:03;29.57;;;27.63;;
8397;SDS011;4236;54.504;9.588;2024-02-14T11:07:33;28.07;;;26.03;;
8397;SDS011;4236;54.504;9.588;2024-02-14T11:10:01;26.70;;;25.07;;
8397;SDS011;4236;54.504;9.588;2024-02-14T11:12:35;30.37;;;28.37;;
8397;SDS011;4236;54.504;9.588;2024-02-14T11:15:09;28.10;;;26.07;;
8397;SDS011;4236;54.504;9.588;2024-02-14T11:17:38;27.93;;;26.13;;
8397;SDS011;4236;54.504;9.588;2024-02-14T11:20:17;25.90;;;24.27;;
8397;SDS011;4236;54.504;9.588;2024-02-14T11:22:53;28.47;;;26.37;;
8397;SDS011;4236;54.504;9.588;2024-02-14T11:25:23;26.77;;;24.97;;
8397;SDS011;4236;54.504;9.588;2024-02-14T11:27:57;28.33;;;26.43;;
8397;SDS011;4236;54.504;9.588;2024-02-14T11:30:28;27.13;;;25.30;;
8397;SDS011;4236;54.504;9.588;2024-02-14T11:35:45;30.23;;;27.97;;
8397;SDS011;4236;54.504;9.588;2024-02-14T11:38:14;27.23;;;25.33;;
8397;SDS011;4236;54.504;9.588;2024-02-14T11:40:42;26.93;;;25.20;;
8397;SDS011;4236;54.504;9.588;2024-02-14T11:43:12;26.80;;;25.10;;
8397;SDS011;4236;54.504;9.588;2024-02-14T11:45:41;28.20;;;26.50;;
8397;SDS011;4236;54.504;9.588;2024-02-14T11:48:10;26.87;;;25.27;;
8397;SDS011;4236;54.504;9.588;2024-02-14T11:50:39;28.43;;;26.60;;
8397;SDS011;4236;54.504;9.588;2024-02-14T11:53:07;27.87;;;26.10;;
8397;SDS011;4236;54.504;9.588;2024-02-14T11:55:37;28.03;;;26.03;;
8397;SDS011;4236;54.504;9.588;2024-02-14T11:58:06;26.77;;;25.17;;
8397;SDS011;4236;54.504;9.588;2024-02-14T12:00:36;27.10;;;25.27;;
8397;SDS011;4236;54.504;9.588;2024-02-14T12:03:05;28.40;;;26.33;;
8397;SDS011;4236;54.504;9.588;2024-02-14T12:05:34;26.80;;;25.20;;
8397;SDS011;4236;54.504;9.588;2024-02-14T12:08:04;25.53;;;23.97;;
8397;SDS011;4236;54.504;9.588;2024-02-14T12:10:34;24.83;;;23.40;;
8397;SDS011;4236;54.504;9.588;2024-02-14T12:13:07;24.50;;;23.10;;
8397;SDS011;4236;54.504;9.588;2024-02-14T12:15:41;26.00;;;24.30;;
8397;SDS011;4236;54.504;9.588;2024-02-14T12:18:09;24.53;;;23.23;;
8397;SDS011;4236;54.504;9.588;2024-02-14T12:20:37;24.83;;;23.43;;
8397;SDS011;4236;54.504;9.588;2024-02-14T12:23:05;23.90;;;22.60;;
8397;SDS011;4236;54.504;9.588;2024-02-14T12:25:33;22.97;;;21.67;;
8397;SDS011;4236;54.504;9.588;2024-02-14T12:28:01;23.57;;;22.27;;
8397;SDS011;4236;54.504;9.588;2024-02-14T12:30:41;25.37;;;23.77;;
8397;SDS011;4236;54.504;9.588;2024-02-14T12:33:12;24.67;;;23.23;;
8397;SDS011;4236;54.504;9.588;2024-02-14T12:35:42;23.93;;;22.57;;
8397;SDS011;4236;54.504;9.588;2024-02-14T12:38:10;24.93;;;23.53;;
8397;SDS011;4236;54.504;9.588;2024-02-14T12:40:39;25.37;;;23.77;;
8397;SDS011;4236;54.504;9.588;2024-02-14T12:43:08;25.70;;;24.10;;
8397;SDS011;4236;54.504;9.588;2024-02-14T12:45:36;26.23;;;24.63;;
8397;SDS011;4236;54.504;9.588;2024-02-14T12:48:06;25.30;;;23.80;;
8397;SDS011;4236;54.504;9.588;2024-02-14T12:50:35;25.43;;;24.03;;
8397;SDS011;4236;54.504;9.588;2024-02-14T12:53:04;24.33;;;23.03;;
8397;SDS011;4236;54.504;9.588;2024-02-14T12:55:32;25.83;;;24.23;;
8397;SDS011;4236;54.504;9.588;2024-02-14T12:58:00;25.00;;;23.50;;
8397;SDS011;4236;54.504;9.588;2024-02-14T13:00:28;24.90;;;23.43;;
8397;SDS011;4236;54.504;9.588;2024-02-14T13:02:58;22.87;;;21.70;;
8397;SDS011;4236;54.504;9.588;2024-02-14T13:05:28;23.10;;;21.80;;
8397;SDS011;4236;54.504;9.588;2024-02-14T13:07:56;23.10;;;21.90;;
8397;SDS011;4236;54.504;9.588;2024-02-14T13:10:24;22.30;;;21.23;;
8397;SDS011;4236;54.504;9.588;2024-02-14T13:12:51;23.53;;;22.20;;
8397;SDS011;4236;54.504;9.588;2024-02-14T13:15:21;22.13;;;21.07;;
8397;SDS011;4236;54.504;9.588;2024-02-14T13:17:48;23.13;;;21.93;;
8397;SDS011;4236;54.504;9.588;2024-02-14T13:20:16;21.97;;;20.97;;
8397;SDS011;4236;54.504;9.588;2024-02-14T13:22:46;21.90;;;20.80;;
8397;SDS011;4236;54.504;9.588;2024-02-14T13:25:14;22.20;;;21.10;;
8397;SDS011;4236;54.504;9.588;2024-02-14T13:27:42;22.60;;;21.40;;
8397;SDS011;4236;54.504;9.588;2024-02-14T13:30:11;22.20;;;21.10;;
8397;SDS011;4236;54.504;9.588;2024-02-14T13:32:39;23.00;;;21.60;;
8397;SDS011;4236;54.504;9.588;2024-02-14T13:35:07;22.67;;;21.50;;
8397;SDS011;4236;54.504;9.588;2024-02-14T13:37:37;23.40;;;22.07;;
8397;SDS011;4236;54.504;9.588;2024-02-14T13:40:07;23.93;;;22.40;;
8397;SDS011;4236;54.504;9.588;2024-02-14T13:42:36;24.20;;;22.90;;
8397;SDS011;4236;54.504;9.588;2024-02-14T13:45:05;24.17;;;22.70;;
8397;SDS011;4236;54.504;9.588;2024-02-14T13:47:36;23.60;;;22.17;;
8397;SDS011;4236;54.504;9.588;2024-02-14T13:50:05;25.00;;;23.20;;
8397;SDS011;4236;54.504;9.588;2024-02-14T13:52:34;25.07;;;23.60;;
8397;SDS011;4236;54.504;9.588;2024-02-14T13:55:02;24.20;;;22.60;;
8397;SDS011;4236;54.504;9.588;2024-02-14T13:57:33;24.67;;;23.17;;
8397;SDS011;4236;54.504;9.588;2024-02-14T14:00:04;23.63;;;22.33;;
8397;SDS011;4236;54.504;9.588;2024-02-14T14:02:35;24.57;;;22.97;;
8397;SDS011;4236;54.504;9.588;2024-02-14T14:05:07;24.43;;;22.83;;
8397;SDS011;4236;54.504;9.588;2024-02-14T14:07:36;24.33;;;22.80;;
8397;SDS011;4236;54.504;9.588;2024-02-14T14:10:22;24.40;;;22.80;;
8397;SDS011;4236;54.504;9.588;2024-02-14T14:12:53;24.17;;;22.60;;
8397;SDS011;4236;54.504;9.588;2024-02-14T14:15:21;25.10;;;23.50;;
8397;SDS011;4236;54.504;9.588;2024-02-14T14:17:50;24.37;;;22.67;;
8397;SDS011;4236;54.504;9.588;2024-02-14T14:20:19;24.40;;;22.90;;
8397;SDS011;4236;54.504;9.588;2024-02-14T14:22:47;25.77;;;23.70;;
8397;SDS011;4236;54.504;9.588;2024-02-14T14:25:15;23.67;;;22.00;;
8397;SDS011;4236;54.504;9.588;2024-02-14T14:27:44;24.90;;;22.87;;
8397;SDS011;4236;54.504;9.588;2024-02-14T14:30:13;25.17;;;23.47;;
8397;SDS011;4236;54.504;9.588;2024-02-14T14:32:42;27.43;;;24.93;;
8397;SDS011;4236;54.504;9.588;2024-02-14T14:35:09;29.20;;;26.40;;
8397;SDS011;4236;54.504;9.588;2024-02-14T14:37:38;26.67;;;24.37;;
8397;SDS011;4236;54.504;9.588;2024-02-14T14:40:06;27.53;;;25.10;;
8397;SDS011;4236;54.504;9.588;2024-02-14T14:42:36;26.13;;;23.93;;
8397;SDS011;4236;54.504;9.588;2024-02-14T14:45:04;27.80;;;25.10;;
8397;SDS011;4236;54.504;9.588;2024-02-14T14:47:34;28.13;;;25.43;;
8397;SDS011;4236;54.504;9.588;2024-02-14T14:50:02;28.17;;;25.43;;
8397;SDS011;4236;54.504;9.588;2024-02-14T14:52:31;27.53;;;25.27;;
8397;SDS011;4236;54.504;9.588;2024-02-14T14:54:59;30.70;;;25.80;;
8397;SDS011;4236;54.504;9.588;2024-02-14T14:57:27;29.93;;;26.87;;
8397;SDS011;4236;54.504;9.588;2024-02-14T14:59:55;29.13;;;26.77;;